sensor_id;sensor_type;location;lat;lon;timestamp;temperature;humidity
7445;DHT22;3764;48.126;11.594;2022-07-18T00:00:03;20.30;91.10
7445;DHT22;3764;48.126;11.594;2022-07-18T00:02:31;20.20;91.20
7445;DHT22;3764;48.126;11.594;2022-07-18T00:04:58;20.30;91.40
7445;DHT22;3764;48.126;11.594;2022-07-18T00:07:25;20.30;91.30
7445;DHT22;3764;48.126;11.594;2022-07-18T00:09:52;20.30;91.40
7445;DHT22;3764;48.126;11.594;2022-07-18T00:12:20;20.40;91.50
7445;DHT22;3764;48.126;11.594;2022-07-18T00:14:48;20.40;91.40
7445;DHT22;3764;48.126;11.594;2022-07-18T00:17:15;20.40;91.40
7445;DHT22;3764;48.126;11.594;2022-07-18T00:19:42;20.30;91.50
7445;DHT22;3764;48.126;11.594;2022-07-18T00:22:09;20.20;91.50
7445;DHT22;3764;48.126;11.594;2022-07-18T00:24:36;20.20;91.50
7445;DHT22;3764;48.126;11.594;2022-07-18T00:27:04;20.10;91.50
7445;DHT22;3764;48.126;11.594;2022-07-18T00:29:34;20.20;91.70
7445;DHT22;3764;48.126;11.594;2022-07-18T00:32:03;20.00;91.70
7445;DHT22;3764;48.126;11.594;2022-07-18T00:34:30;20.00;91.90
7445;DHT22;3764;48.126;11.594;2022-07-18T00:36:57;20.00;91.90
7445;DHT22;3764;48.126;11.594;2022-07-18T00:39:25;20.00;91.90
7445;DHT22;3764;48.126;11.594;2022-07-18T00:41:52;20.00;91.80
7445;DHT22;3764;48.126;11.594;2022-07-18T00:44:20;20.00;92.10
7445;DHT22;3764;48.126;11.594;2022-07-18T00:46:50;19.90;92.00
7445;DHT22;3764;48.126;11.594;2022-07-18T00:49:17;19.90;92.10
7445;DHT22;3764;48.126;11.594;2022-07-18T00:51:45;19.90;92.20
7445;DHT22;3764;48.126;11.594;2022-07-18T00:54:12;19.80;92.30
7445;DHT22;3764;48.126;11.594;2022-07-18T00:56:39;19.80;92.30
7445;DHT22;3764;48.126;11.594;2022-07-18T00:59:07;19.80;92.20
7445;DHT22;3764;48.126;11.594;2022-07-18T01:01:34;19.80;92.50
7445;DHT22;3764;48.126;11.594;2022-07-18T01:04:12;19.80;92.60
7445;DHT22;3764;48.126;11.594;2022-07-18T01:06:40;19.90;92.80
7445;DHT22;3764;48.126;11.594;2022-07-18T01:09:08;19.80;92.40
7445;DHT22;3764;48.126;11.594;2022-07-18T01:11:35;19.80;92.40
7445;DHT22;3764;48.126;11.594;2022-07-18T01:14:03;19.80;92.50
7445;DHT22;3764;48.126;11.594;2022-07-18T01:16:31;19.80;92.50
7445;DHT22;3764;48.126;11.594;2022-07-18T01:18:58;19.80;92.60
7445;DHT22;3764;48.126;11.594;2022-07-18T01:21:27;19.80;92.50
7445;DHT22;3764;48.126;11.594;2022-07-18T01:23:54;19.80;92.70
7445;DHT22;3764;48.126;11.594;2022-07-18T01:26:21;19.70;92.90
7445;DHT22;3764;48.126;11.594;2022-07-18T01:28:48;19.60;92.70
7445;DHT22;3764;48.126;11.594;2022-07-18T01:31:16;19.60;92.90
7445;DHT22;3764;48.126;11.594;2022-07-18T01:33:43;19.60;92.90
7445;DHT22;3764;48.126;11.594;2022-07-18T01:36:10;19.60;92.80
7445;DHT22;3764;48.126;11.594;2022-07-18T01:38:38;19.70;93.00
7445;DHT22;3764;48.126;11.594;2022-07-18T01:41:06;19.60;92.70
7445;DHT22;3764;48.126;11.594;2022-07-18T01:43:33;19.60;92.70
7445;DHT22;3764;48.126;11.594;2022-07-18T01:46:03;19.50;92.90
7445;DHT22;3764;48.126;11.594;2022-07-18T01:48:30;19.50;93.00
7445;DHT22;3764;48.126;11.594;2022-07-18T01:50:58;19.50;93.00
7445;DHT22;3764;48.126;11.594;2022-07-18T01:53:25;19.50;93.20
7445;DHT22;3764;48.126;11.594;2022-07-18T01:55:54;19.50;93.20
7445;DHT22;3764;48.126;11.594;2022-07-18T01:58:21;19.50;93.20
7445;DHT22;3764;48.126;11.594;2022-07-18T02:00:49;19.40;93.10
7445;DHT22;3764;48.126;11.594;2022-07-18T02:03:16;19.40;93.20
7445;DHT22;3764;48.126;11.594;2022-07-18T02:05:43;19.30;93.20
7445;DHT22;3764;48.126;11.594;2022-07-18T02:08:10;19.30;93.30
7445;DHT22;3764;48.126;11.594;2022-07-18T02:10:37;19.30;93.30
7445;DHT22;3764;48.126;11.594;2022-07-18T02:13:06;19.20;93.70
7445;DHT22;3764;48.126;11.594;2022-07-18T02:15:33;19.00;93.80
7445;DHT22;3764;48.126;11.594;2022-07-18T02:18:00;19.00;93.90
7445;DHT22;3764;48.126;11.594;2022-07-18T02:20:27;18.80;93.90
7445;DHT22;3764;48.126;11.594;2022-07-18T02:22:54;18.80;93.90
7445;DHT22;3764;48.126;11.594;2022-07-18T02:25:21;18.80;94.10
7445;DHT22;3764;48.126;11.594;2022-07-18T02:27:48;18.60;94.20
7445;DHT22;3764;48.126;11.594;2022-07-18T02:30:18;18.60;94.20
7445;DHT22;3764;48.126;11.594;2022-07-18T02:32:46;18.60;94.30
7445;DHT22;3764;48.126;11.594;2022-07-18T02:35:13;18.70;94.30
7445;DHT22;3764;48.126;11.594;2022-07-18T02:37:40;18.70;94.10
7445;DHT22;3764;48.126;11.594;2022-07-18T02:40:09;18.70;94.20
7445;DHT22;3764;48.126;11.594;2022-07-18T02:42:37;18.80;94.30
7445;DHT22;3764;48.126;11.594;2022-07-18T02:45:05;18.60;94.30
7445;DHT22;3764;48.126;11.594;2022-07-18T02:47:34;18.60;94.40
7445;DHT22;3764;48.126;11.594;2022-07-18T02:50:01;18.60;94.40
7445;DHT22;3764;48.126;11.594;2022-07-18T02:52:28;18.60;94.40
7445;DHT22;3764;48.126;11.594;2022-07-18T02:54:55;18.60;94.50
7445;DHT22;3764;48.126;11.594;2022-07-18T02:57:22;18.60;94.30
7445;DHT22;3764;48.126;11.594;2022-07-18T02:59:50;18.60;94.40
7445;DHT22;3764;48.126;11.594;2022-07-18T03:02:17;18.60;94.30
7445;DHT22;3764;48.126;11.594;2022-07-18T03:04:46;18.70;94.30
7445;DHT22;3764;48.126;11.594;2022-07-18T03:07:13;18.70;94.30
7445;DHT22;3764;48.126;11.594;2022-07-18T03:09:40;18.70;94.30
7445;DHT22;3764;48.126;11.594;2022-07-18T03:12:07;18.70;94.40
7445;DHT22;3764;48.126;11.594;2022-07-18T03:14:34;18.70;94.30
7445;DHT22;3764;48.126;11.594;2022-07-18T03:17:01;18.60;94.20
7445;DHT22;3764;48.126;11.594;2022-07-18T03:19:28;18.60;94.30
7445;DHT22;3764;48.126;11.594;2022-07-18T03:21:57;18.60;94.30
7445;DHT22;3764;48.126;11.594;2022-07-18T03:24:24;18.60;94.30
7445;DHT22;3764;48.126;11.594;2022-07-18T03:26:51;18.60;94.30
7445;DHT22;3764;48.126;11.594;2022-07-18T03:29:18;18.60;94.30
7445;DHT22;3764;48.126;11.594;2022-07-18T03:31:45;18.60;94.40
7445;DHT22;3764;48.126;11.594;2022-07-18T03:34:12;18.60;94.50
7445;DHT22;3764;48.126;11.594;2022-07-18T03:36:40;18.60;94.50
7445;DHT22;3764;48.126;11.594;2022-07-18T03:39:09;18.50;94.70
7445;DHT22;3764;48.126;11.594;2022-07-18T03:41:37;18.50;94.80
7445;DHT22;3764;48.126;11.594;2022-07-18T03:44:05;18.30;94.90
7445;DHT22;3764;48.126;11.594;2022-07-18T03:46:32;18.20;95.10
7445;DHT22;3764;48.126;11.594;2022-07-18T03:48:59;18.20;95.10
7445;DHT22;3764;48.126;11.594;2022-07-18T03:51:26;18.20;95.10
7445;DHT22;3764;48.126;11.594;2022-07-18T03:53:53;18.20;95.00
7445;DHT22;3764;48.126;11.594;2022-07-18T03:56:22;18.20;95.00
7445;DHT22;3764;48.126;11.594;2022-07-18T03:58:49;18.30;95.00
7445;DHT22;3764;48.126;11.594;2022-07-18T04:01:16;18.20;94.90
7445;DHT22;3764;48.126;11.594;2022-07-18T04:03:44;18.20;95.00
7445;DHT22;3764;48.126;11.594;2022-07-18T04:06:11;18.20;95.10
7445;DHT22;3764;48.126;11.594;2022-07-18T04:08:38;18.20;95.40
7445;DHT22;3764;48.126;11.594;2022-07-18T04:11:05;18.30;95.40
7445;DHT22;3764;48.126;11.594;2022-07-18T04:13:33;18.30;95.70
7445;DHT22;3764;48.126;11.594;2022-07-18T04:16:01;18.30;95.50
7445;DHT22;3764;48.126;11.594;2022-07-18T04:18:28;18.30;95.40
7445;DHT22;3764;48.126;11.594;2022-07-18T04:20:55;18.30;95.50
7445;DHT22;3764;48.126;11.594;2022-07-18T04:23:22;18.30;95.50
7445;DHT22;3764;48.126;11.594;2022-07-18T04:25:49;18.30;95.80
7445;DHT22;3764;48.126;11.594;2022-07-18T04:28:16;18.30;95.50
7445;DHT22;3764;48.126;11.594;2022-07-18T04:30:45;18.30;95.50
7445;DHT22;3764;48.126;11.594;2022-07-18T04:33:12;18.40;95.60
7445;DHT22;3764;48.126;11.594;2022-07-18T04:35:39;18.30;95.60
7445;DHT22;3764;48.126;11.594;2022-07-18T04:38:09;18.30;95.80
7445;DHT22;3764;48.126;11.594;2022-07-18T04:40:37;18.40;96.00
7445;DHT22;3764;48.126;11.594;2022-07-18T04:43:05;18.40;96.40
7445;DHT22;3764;48.126;11.594;2022-07-18T04:45:32;18.40;96.20
7445;DHT22;3764;48.126;11.594;2022-07-18T04:48:03;18.40;96.30
7445;DHT22;3764;48.126;11.594;2022-07-18T04:50:31;18.40;96.30
7445;DHT22;3764;48.126;11.594;2022-07-18T04:52:59;18.40;96.30
7445;DHT22;3764;48.126;11.594;2022-07-18T04:55:26;18.40;96.40
7445;DHT22;3764;48.126;11.594;2022-07-18T04:57:54;18.50;96.50
7445;DHT22;3764;48.126;11.594;2022-07-18T05:00:26;18.50;96.70
7445;DHT22;3764;48.126;11.594;2022-07-18T05:02:54;18.50;96.40
7445;DHT22;3764;48.126;11.594;2022-07-18T05:05:24;18.50;96.50
7445;DHT22;3764;48.126;11.594;2022-07-18T05:07:52;18.50;96.70
7445;DHT22;3764;48.126;11.594;2022-07-18T05:10:22;18.50;97.00
7445;DHT22;3764;48.126;11.594;2022-07-18T05:12:51;18.50;97.00
7445;DHT22;3764;48.126;11.594;2022-07-18T05:15:20;18.60;97.10
7445;DHT22;3764;48.126;11.594;2022-07-18T05:17:47;18.60;97.40
7445;DHT22;3764;48.126;11.594;2022-07-18T05:20:16;18.60;97.20
7445;DHT22;3764;48.126;11.594;2022-07-18T05:22:45;18.60;97.80
7445;DHT22;3764;48.126;11.594;2022-07-18T05:25:13;18.60;97.30
7445;DHT22;3764;48.126;11.594;2022-07-18T05:27:41;18.60;97.70
7445;DHT22;3764;48.126;11.594;2022-07-18T05:30:10;18.60;97.60
7445;DHT22;3764;48.126;11.594;2022-07-18T05:32:38;18.60;97.50
7445;DHT22;3764;48.126;11.594;2022-07-18T05:35:06;18.60;97.30
7445;DHT22;3764;48.126;11.594;2022-07-18T05:37:34;18.60;97.40
7445;DHT22;3764;48.126;11.594;2022-07-18T05:40:06;18.60;97.50
7445;DHT22;3764;48.126;11.594;2022-07-18T05:42:34;18.60;97.60
7445;DHT22;3764;48.126;11.594;2022-07-18T05:45:01;18.70;97.60
7445;DHT22;3764;48.126;11.594;2022-07-18T05:47:28;18.70;97.50
7445;DHT22;3764;48.126;11.594;2022-07-18T05:49:55;18.80;97.60
7445;DHT22;3764;48.126;11.594;2022-07-18T05:52:23;18.80;98.10
7445;DHT22;3764;48.126;11.594;2022-07-18T05:54:50;18.80;97.70
7445;DHT22;3764;48.126;11.594;2022-07-18T05:57:19;18.90;97.70
7445;DHT22;3764;48.126;11.594;2022-07-18T05:59:46;18.90;97.90
7445;DHT22;3764;48.126;11.594;2022-07-18T06:02:13;19.00;98.50
7445;DHT22;3764;48.126;11.594;2022-07-18T06:04:40;18.90;97.80
7445;DHT22;3764;48.126;11.594;2022-07-18T06:07:07;18.90;97.60
7445;DHT22;3764;48.126;11.594;2022-07-18T06:09:34;18.80;97.50
7445;DHT22;3764;48.126;11.594;2022-07-18T06:12:03;18.80;97.50
7445;DHT22;3764;48.126;11.594;2022-07-18T06:14:32;18.90;98.00
7445;DHT22;3764;48.126;11.594;2022-07-18T06:16:59;18.90;98.10
7445;DHT22;3764;48.126;11.594;2022-07-18T06:19:26;19.00;98.50
7445;DHT22;3764;48.126;11.594;2022-07-18T06:21:53;19.10;98.30
7445;DHT22;3764;48.126;11.594;2022-07-18T06:24:20;19.10;98.40
7445;DHT22;3764;48.126;11.594;2022-07-18T06:26:47;19.20;98.30
7445;DHT22;3764;48.126;11.594;2022-07-18T06:29:15;19.20;98.10
7445;DHT22;3764;48.126;11.594;2022-07-18T06:31:44;19.20;97.50
7445;DHT22;3764;48.126;11.594;2022-07-18T06:34:11;19.30;97.90
7445;DHT22;3764;48.126;11.594;2022-07-18T06:36:38;19.40;98.00
7445;DHT22;3764;48.126;11.594;2022-07-18T06:39:05;19.40;97.70
7445;DHT22;3764;48.126;11.594;2022-07-18T06:41:37;19.50;98.30
7445;DHT22;3764;48.126;11.594;2022-07-18T06:44:05;19.50;97.80
7445;DHT22;3764;48.126;11.594;2022-07-18T06:46:32;19.50;97.80
7445;DHT22;3764;48.126;11.594;2022-07-18T06:49:00;19.60;97.20
7445;DHT22;3764;48.126;11.594;2022-07-18T06:51:27;19.60;97.10
7445;DHT22;3764;48.126;11.594;2022-07-18T06:53:55;19.70;96.80
7445;DHT22;3764;48.126;11.594;2022-07-18T06:56:22;19.70;96.70
7445;DHT22;3764;48.126;11.594;2022-07-18T06:58:49;19.80;96.50
7445;DHT22;3764;48.126;11.594;2022-07-18T07:01:17;19.80;96.80
7445;DHT22;3764;48.126;11.594;2022-07-18T07:03:46;19.90;95.20
7445;DHT22;3764;48.126;11.594;2022-07-18T07:06:14;19.90;95.00
7445;DHT22;3764;48.126;11.594;2022-07-18T07:08:43;20.00;94.90
7445;DHT22;3764;48.126;11.594;2022-07-18T07:11:10;20.10;93.90
7445;DHT22;3764;48.126;11.594;2022-07-18T07:13:37;20.10;93.90
7445;DHT22;3764;48.126;11.594;2022-07-18T07:16:04;20.20;93.90
7445;DHT22;3764;48.126;11.594;2022-07-18T07:18:32;20.30;93.80
7445;DHT22;3764;48.126;11.594;2022-07-18T07:20:59;20.40;93.90
7445;DHT22;3764;48.126;11.594;2022-07-18T07:23:29;20.50;94.00
7445;DHT22;3764;48.126;11.594;2022-07-18T07:25:56;20.50;94.10
7445;DHT22;3764;48.126;11.594;2022-07-18T07:28:23;20.60;94.00
7445;DHT22;3764;48.126;11.594;2022-07-18T07:30:50;20.60;94.00
7445;DHT22;3764;48.126;11.594;2022-07-18T07:33:17;20.70;94.10
7445;DHT22;3764;48.126;11.594;2022-07-18T07:35:44;20.70;94.00
7445;DHT22;3764;48.126;11.594;2022-07-18T07:38:11;20.70;93.80
7445;DHT22;3764;48.126;11.594;2022-07-18T07:40:45;20.80;93.60
7445;DHT22;3764;48.126;11.594;2022-07-18T07:43:14;20.90;93.30
7445;DHT22;3764;48.126;11.594;2022-07-18T07:45:43;20.90;93.10
7445;DHT22;3764;48.126;11.594;2022-07-18T07:48:12;21.00;92.90
7445;DHT22;3764;48.126;11.594;2022-07-18T07:50:39;21.00;92.80
7445;DHT22;3764;48.126;11.594;2022-07-18T07:53:06;21.10;92.60
7445;DHT22;3764;48.126;11.594;2022-07-18T07:55:34;21.10;92.60
7445;DHT22;3764;48.126;11.594;2022-07-18T07:58:02;21.20;92.70
7445;DHT22;3764;48.126;11.594;2022-07-18T08:00:30;21.20;92.60
7445;DHT22;3764;48.126;11.594;2022-07-18T08:02:59;21.30;92.60
7445;DHT22;3764;48.126;11.594;2022-07-18T08:05:28;21.40;92.50
7445;DHT22;3764;48.126;11.594;2022-07-18T08:07:56;21.40;92.40
7445;DHT22;3764;48.126;11.594;2022-07-18T08:10:23;21.40;92.00
7445;DHT22;3764;48.126;11.594;2022-07-18T08:12:51;21.50;91.30
7445;DHT22;3764;48.126;11.594;2022-07-18T08:15:20;21.60;91.00
7445;DHT22;3764;48.126;11.594;2022-07-18T08:17:47;21.60;90.90
7445;DHT22;3764;48.126;11.594;2022-07-18T08:20:14;21.70;90.40
7445;DHT22;3764;48.126;11.594;2022-07-18T08:22:56;21.80;90.30
7445;DHT22;3764;48.126;11.594;2022-07-18T08:25:24;21.80;90.20
7445;DHT22;3764;48.126;11.594;2022-07-18T08:27:51;21.90;90.30
7445;DHT22;3764;48.126;11.594;2022-07-18T08:30:20;22.00;90.10
7445;DHT22;3764;48.126;11.594;2022-07-18T08:32:47;22.00;89.70
7445;DHT22;3764;48.126;11.594;2022-07-18T08:35:14;22.10;89.10
7445;DHT22;3764;48.126;11.594;2022-07-18T08:37:42;22.20;88.70
7445;DHT22;3764;48.126;11.594;2022-07-18T08:40:10;22.20;88.30
7445;DHT22;3764;48.126;11.594;2022-07-18T08:42:37;22.40;87.90
7445;DHT22;3764;48.126;11.594;2022-07-18T08:45:06;22.50;87.70
7445;DHT22;3764;48.126;11.594;2022-07-18T08:47:35;22.50;87.70
7445;DHT22;3764;48.126;11.594;2022-07-18T08:50:03;22.60;87.60
7445;DHT22;3764;48.126;11.594;2022-07-18T08:52:30;22.60;86.50
7445;DHT22;3764;48.126;11.594;2022-07-18T08:54:58;22.70;86.00
7445;DHT22;3764;48.126;11.594;2022-07-18T08:57:26;22.70;86.10
7445;DHT22;3764;48.126;11.594;2022-07-18T08:59:54;22.70;86.20
7445;DHT22;3764;48.126;11.594;2022-07-18T09:02:38;22.80;86.80
7445;DHT22;3764;48.126;11.594;2022-07-18T09:05:15;22.90;86.10
7445;DHT22;3764;48.126;11.594;2022-07-18T09:07:43;22.90;86.20
7445;DHT22;3764;48.126;11.594;2022-07-18T09:10:11;22.90;85.50
7445;DHT22;3764;48.126;11.594;2022-07-18T09:12:38;23.00;84.60
7445;DHT22;3764;48.126;11.594;2022-07-18T09:15:07;23.10;84.90
7445;DHT22;3764;48.126;11.594;2022-07-18T09:17:38;23.10;85.00
7445;DHT22;3764;48.126;11.594;2022-07-18T09:20:07;23.20;84.50
7445;DHT22;3764;48.126;11.594;2022-07-18T09:22:38;23.30;83.30
7445;DHT22;3764;48.126;11.594;2022-07-18T09:25:07;23.30;83.50
7445;DHT22;3764;48.126;11.594;2022-07-18T09:27:37;23.40;82.90
7445;DHT22;3764;48.126;11.594;2022-07-18T09:30:16;23.50;82.40
7445;DHT22;3764;48.126;11.594;2022-07-18T09:32:48;23.50;81.60
7445;DHT22;3764;48.126;11.594;2022-07-18T09:35:19;23.60;80.50
7445;DHT22;3764;48.126;11.594;2022-07-18T09:41:15;23.80;75.70
7445;DHT22;3764;48.126;11.594;2022-07-18T09:43:42;23.80;76.30
7445;DHT22;3764;48.126;11.594;2022-07-18T09:46:09;23.80;77.00
7445;DHT22;3764;48.126;11.594;2022-07-18T09:48:38;23.90;76.70
7445;DHT22;3764;48.126;11.594;2022-07-18T09:51:06;23.90;76.70
7445;DHT22;3764;48.126;11.594;2022-07-18T09:53:35;23.90;77.40
7445;DHT22;3764;48.126;11.594;2022-07-18T09:56:04;24.00;78.00
7445;DHT22;3764;48.126;11.594;2022-07-18T09:58:33;24.00;77.20
7445;DHT22;3764;48.126;11.594;2022-07-18T10:01:02;24.00;76.50
7445;DHT22;3764;48.126;11.594;2022-07-18T10:03:30;24.10;77.20
7445;DHT22;3764;48.126;11.594;2022-07-18T10:06:00;24.20;77.10
7445;DHT22;3764;48.126;11.594;2022-07-18T10:08:30;24.20;74.10
7445;DHT22;3764;48.126;11.594;2022-07-18T10:10:58;24.30;75.90
7445;DHT22;3764;48.126;11.594;2022-07-18T10:13:27;24.40;75.80
7445;DHT22;3764;48.126;11.594;2022-07-18T10:15:55;24.50;75.90
7445;DHT22;3764;48.126;11.594;2022-07-18T10:18:23;24.60;75.30
7445;DHT22;3764;48.126;11.594;2022-07-18T10:20:55;24.60;74.80
7445;DHT22;3764;48.126;11.594;2022-07-18T10:23:26;24.60;74.50
7445;DHT22;3764;48.126;11.594;2022-07-18T10:26:11;24.70;73.50
7445;DHT22;3764;48.126;11.594;2022-07-18T10:29:09;24.70;73.80
7445;DHT22;3764;48.126;11.594;2022-07-18T10:31:38;24.70;74.50
7445;DHT22;3764;48.126;11.594;2022-07-18T10:34:11;24.70;75.20
7445;DHT22;3764;48.126;11.594;2022-07-18T10:36:40;24.70;75.00
7445;DHT22;3764;48.126;11.594;2022-07-18T10:39:10;24.80;75.80
7445;DHT22;3764;48.126;11.594;2022-07-18T10:42:17;24.80;75.30
7445;DHT22;3764;48.126;11.594;2022-07-18T10:44:45;24.80;74.80
7445;DHT22;3764;48.126;11.594;2022-07-18T10:47:14;25.00;73.30
7445;DHT22;3764;48.126;11.594;2022-07-18T10:50:08;25.00;74.20
7445;DHT22;3764;48.126;11.594;2022-07-18T10:52:58;25.10;73.20
7445;DHT22;3764;48.126;11.594;2022-07-18T10:55:31;25.20;72.90
7445;DHT22;3764;48.126;11.594;2022-07-18T10:58:17;25.20;73.20
7445;DHT22;3764;48.126;11.594;2022-07-18T11:00:49;25.30;73.70
7445;DHT22;3764;48.126;11.594;2022-07-18T11:03:20;25.40;73.60
7445;DHT22;3764;48.126;11.594;2022-07-18T11:05:52;25.50;73.90
7445;DHT22;3764;48.126;11.594;2022-07-18T11:08:20;25.50;73.70
7445;DHT22;3764;48.126;11.594;2022-07-18T11:11:11;25.50;73.70
7445;DHT22;3764;48.126;11.594;2022-07-18T11:13:44;25.50;73.50
7445;DHT22;3764;48.126;11.594;2022-07-18T11:16:20;25.50;73.30
7445;DHT22;3764;48.126;11.594;2022-07-18T11:19:16;25.50;73.60
7445;DHT22;3764;48.126;11.594;2022-07-18T11:21:45;25.60;71.90
7445;DHT22;3764;48.126;11.594;2022-07-18T11:24:13;25.60;73.50
7445;DHT22;3764;48.126;11.594;2022-07-18T11:26:46;25.70;73.50
7445;DHT22;3764;48.126;11.594;2022-07-18T11:29:16;25.80;71.00
7445;DHT22;3764;48.126;11.594;2022-07-18T11:31:47;25.80;72.10
7445;DHT22;3764;48.126;11.594;2022-07-18T11:34:15;25.80;72.90
7445;DHT22;3764;48.126;11.594;2022-07-18T11:36:44;25.80;73.10
7445;DHT22;3764;48.126;11.594;2022-07-18T11:39:13;25.80;73.00
7445;DHT22;3764;48.126;11.594;2022-07-18T11:41:41;25.90;72.30
7445;DHT22;3764;48.126;11.594;2022-07-18T11:44:18;25.90;71.30
7445;DHT22;3764;48.126;11.594;2022-07-18T11:46:47;26.00;71.00
7445;DHT22;3764;48.126;11.594;2022-07-18T11:49:14;26.00;71.30
7445;DHT22;3764;48.126;11.594;2022-07-18T11:51:43;26.10;71.80
7445;DHT22;3764;48.126;11.594;2022-07-18T11:54:11;26.10;71.70
7445;DHT22;3764;48.126;11.594;2022-07-18T11:56:46;26.10;72.90
7445;DHT22;3764;48.126;11.594;2022-07-18T11:59:14;26.10;73.20
7445;DHT22;3764;48.126;11.594;2022-07-18T12:01:43;26.20;73.70
7445;DHT22;3764;48.126;11.594;2022-07-18T12:04:16;26.20;73.40
7445;DHT22;3764;48.126;11.594;2022-07-18T12:06:45;26.20;73.90
7445;DHT22;3764;48.126;11.594;2022-07-18T12:09:26;26.20;73.70
7445;DHT22;3764;48.126;11.594;2022-07-18T12:11:53;26.30;75.60
7445;DHT22;3764;48.126;11.594;2022-07-18T12:14:20;26.40;75.20
7445;DHT22;3764;48.126;11.594;2022-07-18T12:16:57;26.60;74.60
7445;DHT22;3764;48.126;11.594;2022-07-18T12:19:35;26.70;75.00
7445;DHT22;3764;48.126;11.594;2022-07-18T12:22:07;26.70;74.00
7445;DHT22;3764;48.126;11.594;2022-07-18T12:24:36;26.80;75.10
7445;DHT22;3764;48.126;11.594;2022-07-18T12:27:18;26.80;75.30
7445;DHT22;3764;48.126;11.594;2022-07-18T12:30:10;26.90;73.40
7445;DHT22;3764;48.126;11.594;2022-07-18T12:32:50;27.00;72.70
7445;DHT22;3764;48.126;11.594;2022-07-18T12:35:20;27.00;73.90
7445;DHT22;3764;48.126;11.594;2022-07-18T12:37:58;27.10;75.20
7445;DHT22;3764;48.126;11.594;2022-07-18T12:40:26;27.20;73.60
7445;DHT22;3764;48.126;11.594;2022-07-18T12:43:07;27.40;70.10
7445;DHT22;3764;48.126;11.594;2022-07-18T12:45:35;27.40;70.40
7445;DHT22;3764;48.126;11.594;2022-07-18T12:48:06;27.50;70.90
7445;DHT22;3764;48.126;11.594;2022-07-18T12:50:34;27.50;70.30
7445;DHT22;3764;48.126;11.594;2022-07-18T12:53:01;27.60;69.30
7445;DHT22;3764;48.126;11.594;2022-07-18T12:55:28;27.60;69.70
7445;DHT22;3764;48.126;11.594;2022-07-18T12:57:55;27.60;71.30
7445;DHT22;3764;48.126;11.594;2022-07-18T13:00:22;27.60;72.50
7445;DHT22;3764;48.126;11.594;2022-07-18T13:02:50;27.60;72.50
7445;DHT22;3764;48.126;11.594;2022-07-18T13:05:18;27.60;72.10
7445;DHT22;3764;48.126;11.594;2022-07-18T13:07:45;27.60;68.60
7445;DHT22;3764;48.126;11.594;2022-07-18T13:10:12;27.70;68.80
7445;DHT22;3764;48.126;11.594;2022-07-18T13:12:40;27.70;69.30
7445;DHT22;3764;48.126;11.594;2022-07-18T13:15:07;27.70;70.90
7445;DHT22;3764;48.126;11.594;2022-07-18T13:17:35;27.70;71.20
7445;DHT22;3764;48.126;11.594;2022-07-18T13:20:02;27.70;68.80
7445;DHT22;3764;48.126;11.594;2022-07-18T13:22:31;27.60;70.10
7445;DHT22;3764;48.126;11.594;2022-07-18T13:25:04;27.60;71.00
7445;DHT22;3764;48.126;11.594;2022-07-18T13:27:31;27.60;71.60
7445;DHT22;3764;48.126;11.594;2022-07-18T13:29:58;27.60;71.40
7445;DHT22;3764;48.126;11.594;2022-07-18T13:32:27;27.60;71.60
7445;DHT22;3764;48.126;11.594;2022-07-18T13:34:54;27.60;70.30
7445;DHT22;3764;48.126;11.594;2022-07-18T13:37:22;27.60;70.60
7445;DHT22;3764;48.126;11.594;2022-07-18T13:39:50;27.60;70.70
7445;DHT22;3764;48.126;11.594;2022-07-18T13:42:17;27.70;78.50
7445;DHT22;3764;48.126;11.594;2022-07-18T13:44:44;27.70;75.50
7445;DHT22;3764;48.126;11.594;2022-07-18T13:47:12;27.60;73.30
7445;DHT22;3764;48.126;11.594;2022-07-18T13:49:39;27.60;73.30
7445;DHT22;3764;48.126;11.594;2022-07-18T13:52:06;27.60;73.40
7445;DHT22;3764;48.126;11.594;2022-07-18T13:54:33;27.60;71.60
7445;DHT22;3764;48.126;11.594;2022-07-18T13:57:02;27.50;71.50
7445;DHT22;3764;48.126;11.594;2022-07-18T13:59:29;27.50;72.60
7445;DHT22;3764;48.126;11.594;2022-07-18T14:01:56;27.50;71.70
7445;DHT22;3764;48.126;11.594;2022-07-18T14:04:23;27.50;72.50
7445;DHT22;3764;48.126;11.594;2022-07-18T14:06:50;27.50;71.80
7445;DHT22;3764;48.126;11.594;2022-07-18T14:09:18;27.50;72.90
7445;DHT22;3764;48.126;11.594;2022-07-18T14:11:45;27.50;72.60
7445;DHT22;3764;48.126;11.594;2022-07-18T14:14:15;27.60;72.90
7445;DHT22;3764;48.126;11.594;2022-07-18T14:16:42;27.70;72.30
7445;DHT22;3764;48.126;11.594;2022-07-18T14:19:09;27.80;73.50
7445;DHT22;3764;48.126;11.594;2022-07-18T14:21:36;27.90;71.20
7445;DHT22;3764;48.126;11.594;2022-07-18T14:24:04;27.90;72.20
7445;DHT22;3764;48.126;11.594;2022-07-18T14:26:31;28.00;71.90
7445;DHT22;3764;48.126;11.594;2022-07-18T14:28:58;28.10;70.30
7445;DHT22;3764;48.126;11.594;2022-07-18T14:31:27;28.10;71.50
7445;DHT22;3764;48.126;11.594;2022-07-18T14:33:54;28.10;70.10
7445;DHT22;3764;48.126;11.594;2022-07-18T14:36:21;28.10;70.30
7445;DHT22;3764;48.126;11.594;2022-07-18T14:38:48;28.00;69.90
7445;DHT22;3764;48.126;11.594;2022-07-18T14:41:15;28.00;70.10
7445;DHT22;3764;48.126;11.594;2022-07-18T14:43:42;28.00;71.60
7445;DHT22;3764;48.126;11.594;2022-07-18T14:46:09;27.90;70.80
7445;DHT22;3764;48.126;11.594;2022-07-18T14:48:38;27.90;69.50
7445;DHT22;3764;48.126;11.594;2022-07-18T14:51:05;27.90;70.20
7445;DHT22;3764;48.126;11.594;2022-07-18T14:53:33;28.00;73.20
7445;DHT22;3764;48.126;11.594;2022-07-18T14:56:00;28.00;71.00
7445;DHT22;3764;48.126;11.594;2022-07-18T14:58:27;28.00;72.50
7445;DHT22;3764;48.126;11.594;2022-07-18T15:00:55;28.00;72.10
7445;DHT22;3764;48.126;11.594;2022-07-18T15:03:22;28.10;75.00
7445;DHT22;3764;48.126;11.594;2022-07-18T15:05:50;28.20;73.10
7445;DHT22;3764;48.126;11.594;2022-07-18T15:08:17;28.20;72.10
7445;DHT22;3764;48.126;11.594;2022-07-18T15:10:45;28.30;77.50
7445;DHT22;3764;48.126;11.594;2022-07-18T15:13:12;28.40;74.10
7445;DHT22;3764;48.126;11.594;2022-07-18T15:15:39;28.50;78.30
7445;DHT22;3764;48.126;11.594;2022-07-18T15:18:06;28.70;75.80
7445;DHT22;3764;48.126;11.594;2022-07-18T15:20:33;28.90;75.10
7445;DHT22;3764;48.126;11.594;2022-07-18T15:23:02;29.00;74.30
7445;DHT22;3764;48.126;11.594;2022-07-18T15:25:29;29.10;77.00
7445;DHT22;3764;48.126;11.594;2022-07-18T15:27:56;29.20;72.70
7445;DHT22;3764;48.126;11.594;2022-07-18T15:30:23;29.20;77.20
7445;DHT22;3764;48.126;11.594;2022-07-18T15:32:50;29.30;74.40
7445;DHT22;3764;48.126;11.594;2022-07-18T15:35:17;29.40;75.30
7445;DHT22;3764;48.126;11.594;2022-07-18T15:37:44;29.40;74.20
7445;DHT22;3764;48.126;11.594;2022-07-18T15:40:13;29.40;73.10
7445;DHT22;3764;48.126;11.594;2022-07-18T15:42:40;29.40;73.80
7445;DHT22;3764;48.126;11.594;2022-07-18T15:45:08;29.50;71.20
7445;DHT22;3764;48.126;11.594;2022-07-18T15:47:35;29.50;73.80
7445;DHT22;3764;48.126;11.594;2022-07-18T15:50:02;29.50;72.40
7445;DHT22;3764;48.126;11.594;2022-07-18T15:52:30;29.50;71.90
7445;DHT22;3764;48.126;11.594;2022-07-18T15:54:58;29.50;69.50
7445;DHT22;3764;48.126;11.594;2022-07-18T15:57:27;29.40;69.90